createdAt,value
2022-08-01T00:01:21.431Z,18.77
2022-08-01T00:06:23.033Z,18.72
2022-08-01T00:11:24.616Z,18.67
2022-08-01T00:16:26.477Z,18.65
2022-08-01T00:21:28.051Z,18.59
2022-08-01T00:26:29.618Z,18.56
2022-08-01T00:31:31.188Z,18.52
2022-08-01T00:36:32.777Z,18.43
2022-08-01T00:41:34.384Z,18.37
2022-08-01T00:46:35.969Z,18.35
2022-08-01T00:51:39.935Z,18.29
2022-08-01T00:56:41.859Z,18.27
2022-08-01T01:01:46.733Z,18.21
2022-08-01T01:07:15.829Z,18.14
2022-08-01T01:18:23.353Z,18.04
2022-08-01T01:23:31.011Z,18.07
2022-08-01T01:28:42.571Z,18.01
2022-08-01T01:33:47.071Z,17.98
2022-08-01T01:38:52.052Z,17.89
2022-08-01T01:43:54.949Z,17.83
2022-08-01T01:48:58.447Z,17.77
2022-08-01T01:54:02.062Z,17.72
2022-08-01T01:59:04.994Z,17.63
2022-08-01T02:04:07.854Z,17.53
2022-08-01T02:09:10.519Z,17.47
2022-08-01T02:14:15.192Z,17.49
2022-08-01T02:19:20.796Z,17.50
2022-08-01T02:24:50.473Z,17.43
2022-08-01T02:30:15.073Z,17.33
2022-08-01T02:35:28.937Z,17.22
2022-08-01T02:40:33.890Z,17.11
2022-08-01T02:45:38.327Z,17.04
2022-08-01T02:50:43.821Z,16.99
2022-08-01T02:55:48.368Z,16.91
2022-08-01T03:00:50.171Z,16.83
2022-08-01T03:05:52.428Z,16.75
2022-08-01T03:10:56.265Z,16.64
2022-08-01T03:15:58.883Z,16.57
2022-08-01T03:21:03.905Z,16.46
2022-08-01T03:26:07.051Z,16.35
2022-08-01T03:31:09.576Z,16.23
2022-08-01T03:36:13.376Z,16.14
2022-08-01T03:41:22.029Z,16.13
2022-08-01T03:46:33.203Z,16.17
2022-08-01T03:51:35.464Z,16.20
2022-08-01T03:56:38.341Z,16.19
2022-08-01T04:01:40.380Z,16.23
2022-08-01T04:06:44.874Z,16.23
2022-08-01T04:11:46.471Z,16.24
2022-08-01T04:16:48.102Z,16.24
2022-08-01T04:21:50.841Z,16.29
2022-08-01T04:26:53.663Z,16.30
2022-08-01T04:31:57.787Z,16.44
2022-08-01T04:37:01.479Z,16.90
2022-08-01T04:42:05.714Z,17.31
2022-08-01T04:47:08.861Z,17.75
2022-08-01T04:52:15.171Z,18.63
2022-08-01T04:57:19.108Z,19.44
2022-08-01T05:02:20.688Z,19.91
2022-08-01T05:07:22.642Z,20.32
2022-08-01T05:12:26.764Z,20.79
2022-08-01T05:17:28.483Z,21.37
2022-08-01T05:22:30.247Z,21.81
2022-08-01T05:27:32.437Z,22.29
2022-08-01T05:32:35.533Z,22.81
2022-08-01T05:37:37.121Z,23.22
2022-08-01T05:42:38.714Z,23.74
2022-08-01T05:47:43.167Z,24.22
2022-08-01T05:52:44.875Z,24.68
2022-08-01T05:57:46.451Z,25.03
2022-08-01T06:02:48.012Z,25.19
2022-08-01T06:07:49.699Z,25.50
2022-08-01T06:12:51.561Z,25.85
2022-08-01T06:17:53.256Z,26.03
2022-08-01T06:22:57.537Z,26.20
2022-08-01T06:28:01.987Z,26.52
2022-08-01T06:33:03.993Z,26.85
2022-08-01T06:38:05.727Z,26.78
2022-08-01T06:43:07.352Z,26.53
2022-08-01T06:48:09.324Z,26.35
2022-08-01T06:53:11.405Z,26.54
2022-08-01T06:58:13.000Z,26.42
2022-08-01T07:03:14.573Z,26.34
2022-08-01T07:08:16.339Z,26.48
2022-08-01T07:13:21.596Z,26.78
2022-08-01T07:18:23.542Z,27.07
2022-08-01T07:23:30.468Z,27.02
2022-08-01T07:28:35.732Z,27.16
2022-08-01T07:33:47.704Z,27.33
2022-08-01T07:38:50.914Z,27.37
2022-08-01T07:43:57.247Z,27.34
2022-08-01T07:49:01.285Z,27.18
2022-08-01T07:54:08.900Z,27.01
2022-08-01T07:59:14.912Z,27.30
2022-08-01T08:04:28.437Z,27.36
2022-08-01T08:09:38.041Z,27.31
2022-08-01T08:14:39.849Z,27.41
2022-08-01T08:19:41.474Z,27.62
2022-08-01T08:24:46.094Z,27.80
2022-08-01T08:29:48.474Z,28.23
2022-08-01T08:34:50.016Z,28.53
2022-08-01T08:39:51.559Z,28.86
2022-08-01T08:44:57.870Z,29.12
2022-08-01T08:50:01.306Z,28.83
2022-08-01T08:55:03.264Z,28.89
2022-08-01T09:00:06.427Z,29.08
2022-08-01T09:05:08.975Z,29.36
2022-08-01T09:10:10.640Z,29.03
2022-08-01T09:15:12.665Z,28.65
2022-08-01T09:20:23.974Z,28.61
2022-08-01T09:25:29.900Z,28.16
2022-08-01T09:30:47.253Z,28.08
2022-08-01T09:35:57.245Z,28.21
2022-08-01T09:41:01.544Z,28.39
2022-08-01T09:46:21.682Z,28.16
2022-08-01T09:52:00.294Z,28.16
2022-08-01T09:57:13.821Z,27.90
2022-08-01T10:02:31.484Z,28.22
2022-08-01T10:07:43.862Z,28.36
2022-08-01T10:12:47.667Z,28.54
2022-08-01T10:17:58.916Z,28.43
2022-08-01T10:23:05.922Z,28.30
2022-08-01T10:28:18.183Z,28.27
2022-08-01T10:33:50.734Z,28.57
2022-08-01T10:38:46.784Z,29.52
2022-08-01T10:43:48.365Z,30.56
2022-08-01T10:49:14.035Z,30.96
2022-08-01T10:54:15.873Z,30.66
2022-08-01T10:59:50.852Z,30.53
2022-08-01T11:04:58.610Z,30.04
2022-08-01T11:10:14.734Z,29.68
2022-08-01T11:15:18.256Z,30.10
2022-08-01T11:20:41.903Z,30.10
2022-08-01T11:26:03.353Z,30.23
2022-08-01T11:31:11.773Z,30.70
2022-08-01T11:36:18.525Z,31.09
2022-08-01T11:41:38.530Z,31.44
2022-08-01T11:47:00.653Z,31.95
2022-08-01T11:52:04.825Z,32.32
2022-08-01T11:57:10.339Z,32.52
2022-08-01T12:02:30.714Z,32.13
2022-08-01T12:07:34.339Z,31.85
2022-08-01T12:12:37.676Z,31.33
2022-08-01T12:17:45.847Z,30.73
2022-08-01T12:23:11.984Z,30.82
2022-08-01T12:28:14.803Z,31.25
2022-08-01T12:33:19.951Z,31.13
2022-08-01T12:38:23.974Z,30.51
2022-08-01T12:43:27.352Z,29.99
2022-08-01T12:48:32.213Z,30.21
2022-08-01T12:53:40.147Z,30.12
2022-08-01T12:58:42.880Z,29.97
2022-08-01T13:04:02.149Z,29.56
2022-08-01T13:09:07.910Z,29.93
2022-08-01T13:14:09.861Z,30.56
2022-08-01T13:19:11.440Z,31.49
2022-08-01T13:24:14.341Z,32.34
2022-08-01T13:29:18.331Z,32.15
2022-08-01T13:34:30.805Z,31.82
2022-08-01T13:39:41.737Z,31.50
2022-08-01T13:44:46.353Z,31.07
2022-08-01T13:49:48.026Z,31.01
2022-08-01T13:54:49.631Z,30.89
2022-08-01T13:59:53.329Z,30.57
2022-08-01T14:04:56.591Z,30.62
2022-08-01T14:10:18.726Z,30.82
2022-08-01T14:15:38.712Z,31.27
2022-08-01T14:20:41.161Z,32.19
2022-08-01T14:26:03.095Z,32.25
2022-08-01T14:31:06.695Z,31.80
2022-08-01T14:36:31.026Z,30.67
2022-08-01T14:41:30.817Z,30.17
2022-08-01T14:46:34.078Z,30.28
2022-08-01T14:51:37.994Z,30.26
2022-08-01T14:56:39.557Z,29.83
2022-08-01T15:01:41.206Z,29.76
2022-08-01T15:06:42.828Z,29.91
2022-08-01T15:11:44.404Z,30.16
2022-08-01T15:16:45.989Z,30.45
2022-08-01T15:21:47.573Z,30.16
2022-08-01T15:26:49.156Z,29.59
2022-08-01T15:31:51.891Z,29.27
2022-08-01T15:36:53.451Z,29.20
2022-08-01T15:41:55.087Z,29.25
2022-08-01T15:46:56.703Z,29.21
2022-08-01T15:51:58.292Z,28.75
2022-08-01T15:57:00.035Z,28.55
2022-08-01T16:02:01.693Z,28.21
2022-08-01T16:07:03.345Z,27.94
2022-08-01T16:12:05.253Z,27.65
2022-08-01T16:17:07.074Z,27.49
2022-08-01T16:22:09.161Z,27.59
2022-08-01T16:27:11.196Z,27.93
2022-08-01T16:32:28.329Z,28.19
2022-08-01T16:37:34.340Z,27.84
2022-08-01T16:42:35.933Z,27.69
2022-08-01T16:47:38.077Z,27.41
2022-08-01T16:52:41.935Z,27.11
2022-08-01T16:57:43.924Z,26.86
2022-08-01T17:02:46.167Z,26.74
2022-08-01T17:07:47.821Z,26.88
2022-08-01T17:12:49.392Z,26.98
2022-08-01T17:17:53.295Z,27.07
2022-08-01T17:22:55.099Z,27.14
2022-08-01T17:27:56.864Z,26.87
2022-08-01T17:32:58.432Z,26.64
2022-08-01T17:38:00.117Z,26.52
2022-08-01T17:43:01.684Z,26.39
2022-08-01T17:48:06.624Z,26.23
2022-08-01T17:53:08.199Z,26.02
2022-08-01T17:58:12.807Z,25.83
2022-08-01T18:03:22.800Z,25.66
2022-08-01T18:08:31.758Z,25.55
2022-08-01T18:13:33.434Z,25.44
2022-08-01T18:18:39.089Z,25.26
2022-08-01T18:23:44.119Z,25.11
2022-08-01T18:28:52.693Z,25.01
2022-08-01T18:33:54.349Z,24.93
2022-08-01T18:38:55.928Z,24.89
2022-08-01T18:44:04.288Z,24.85
2022-08-01T18:49:11.681Z,24.76
2022-08-01T18:54:14.866Z,24.66
2022-08-01T18:59:16.546Z,24.54
2022-08-01T19:04:18.522Z,24.40
2022-08-01T19:09:21.074Z,24.25
2022-08-01T19:14:22.741Z,24.10
2022-08-01T19:19:27.815Z,23.94
2022-08-01T19:24:29.791Z,23.77
2022-08-01T19:29:35.295Z,23.61
2022-08-01T19:34:47.537Z,23.49
2022-08-01T19:39:49.282Z,23.33
2022-08-01T19:44:54.531Z,23.16
2022-08-01T19:49:56.164Z,23.00
2022-08-01T19:54:58.146Z,22.81
2022-08-01T20:00:01.822Z,22.69
2022-08-01T20:05:06.701Z,22.56
2022-08-01T20:10:08.925Z,22.44
2022-08-01T20:15:11.526Z,22.31
2022-08-01T20:20:13.231Z,22.21
2022-08-01T20:25:17.529Z,22.10
2022-08-01T20:30:19.267Z,22.06
2022-08-01T20:35:38.946Z,21.99
2022-08-01T20:40:43.424Z,21.87
2022-08-01T20:45:45.485Z,21.78
2022-08-01T20:51:07.249Z,21.67
2022-08-01T20:56:16.444Z,21.55
2022-08-01T21:01:28.340Z,21.45
2022-08-01T21:06:36.729Z,21.33
2022-08-01T21:12:03.547Z,21.15
2022-08-01T21:17:19.507Z,20.97
2022-08-01T21:22:29.749Z,20.76
2022-08-01T21:27:34.219Z,20.61
2022-08-01T21:32:36.892Z,20.44
2022-08-01T21:37:40.129Z,20.27
2022-08-01T21:42:46.615Z,20.18
2022-08-01T21:47:49.986Z,20.16
2022-08-01T21:53:07.235Z,20.11
2022-08-01T21:58:23.894Z,20.08
2022-08-01T22:03:33.897Z,20.00
2022-08-01T22:08:39.972Z,19.89
2022-08-01T22:13:43.670Z,19.80
2022-08-01T22:18:46.100Z,19.61
2022-08-01T22:23:47.825Z,19.43
2022-08-01T22:28:52.673Z,19.25
2022-08-01T22:33:54.964Z,19.08
2022-08-01T22:38:56.728Z,18.97
2022-08-01T22:44:09.128Z,18.89
2022-08-01T22:49:25.921Z,18.74
2022-08-01T22:54:37.581Z,18.69
2022-08-01T22:59:48.900Z,18.66
2022-08-01T23:04:59.494Z,18.54
2022-08-01T23:10:05.831Z,18.55
2022-08-01T23:15:08.651Z,18.43
2022-08-01T23:20:11.116Z,18.35
2022-08-01T23:25:15.037Z,18.23
2022-08-01T23:30:16.783Z,18.07
2022-08-01T23:35:18.434Z,17.95
2022-08-01T23:40:20.253Z,17.79
2022-08-01T23:45:22.448Z,17.64
2022-08-01T23:50:24.362Z,17.48
2022-08-01T23:55:36.895Z,17.38
